sensor_id;sensor_type;location;lat;lon;timestamp;P1;durP1;ratioP1;P2;durP2;ratioP2
66626;SDS011;53498;50.422;14.912;2023-07-09T00:00:48;7.75;;;6.43;;
66626;SDS011;53498;50.422;14.912;2023-07-09T00:03:35;7.70;;;5.97;;
66626;SDS011;53498;50.422;14.912;2023-07-09T00:06:00;7.90;;;6.88;;
66626;SDS011;53498;50.422;14.912;2023-07-09T00:08:27;7.13;;;6.43;;
66626;SDS011;53498;50.422;14.912;2023-07-09T00:10:55;8.10;;;7.03;;
66626;SDS011;53498;50.422;14.912;2023-07-09T00:13:21;7.20;;;6.50;;
66626;SDS011;53498;50.422;14.912;2023-07-09T00:15:48;7.55;;;6.75;;
66626;SDS011;53498;50.422;14.912;2023-07-09T00:18:15;8.18;;;7.07;;
66626;SDS011;53498;50.422;14.912;2023-07-09T00:20:40;8.50;;;6.55;;
66626;SDS011;53498;50.422;14.912;2023-07-09T00:23:11;7.60;;;6.90;;
66626;SDS011;53498;50.422;14.912;2023-07-09T00:25:39;7.05;;;6.35;;
66626;SDS011;53498;50.422;14.912;2023-07-09T00:28:15;7.97;;;7.20;;
66626;SDS011;53498;50.422;14.912;2023-07-09T00:30:43;7.57;;;6.87;;
66626;SDS011;53498;50.422;14.912;2023-07-09T00:33:13;8.43;;;6.72;;
66626;SDS011;53498;50.422;14.912;2023-07-09T00:35:41;7.80;;;7.00;;
66626;SDS011;53498;50.422;14.912;2023-07-09T00:38:14;7.72;;;7.03;;
66626;SDS011;53498;50.422;14.912;2023-07-09T00:41:03;8.23;;;7.00;;
66626;SDS011;53498;50.422;14.912;2023-07-09T00:43:33;7.43;;;6.72;;
66626;SDS011;53498;50.422;14.912;2023-07-09T00:48:44;8.85;;;7.57;;
66626;SDS011;53498;50.422;14.912;2023-07-09T00:51:13;8.30;;;7.50;;
66626;SDS011;53498;50.422;14.912;2023-07-09T00:53:41;8.20;;;7.40;;
66626;SDS011;53498;50.422;14.912;2023-07-09T00:56:11;8.25;;;7.45;;
66626;SDS011;53498;50.422;14.912;2023-07-09T00:58:40;8.32;;;7.50;;
66626;SDS011;53498;50.422;14.912;2023-07-09T01:01:13;9.55;;;7.88;;
66626;SDS011;53498;50.422;14.912;2023-07-09T01:03:47;8.35;;;6.88;;
66626;SDS011;53498;50.422;14.912;2023-07-09T01:06:17;8.68;;;7.25;;
66626;SDS011;53498;50.422;14.912;2023-07-09T01:08:49;7.93;;;7.22;;
66626;SDS011;53498;50.422;14.912;2023-07-09T01:11:19;10.60;;;8.35;;
66626;SDS011;53498;50.422;14.912;2023-07-09T01:13:51;8.15;;;7.35;;
66626;SDS011;53498;50.422;14.912;2023-07-09T01:16:19;9.40;;;8.23;;
66626;SDS011;53498;50.422;14.912;2023-07-09T01:18:52;8.27;;;7.40;;
66626;SDS011;53498;50.422;14.912;2023-07-09T01:21:17;8.82;;;7.78;;
66626;SDS011;53498;50.422;14.912;2023-07-09T01:23:44;8.65;;;7.35;;
66626;SDS011;53498;50.422;14.912;2023-07-09T01:26:12;8.00;;;7.20;;
66626;SDS011;53498;50.422;14.912;2023-07-09T01:28:39;8.35;;;7.55;;
66626;SDS011;53498;50.422;14.912;2023-07-09T01:31:12;8.18;;;7.47;;
66626;SDS011;53498;50.422;14.912;2023-07-09T01:33:40;8.30;;;7.50;;
66626;SDS011;53498;50.422;14.912;2023-07-09T01:36:07;9.10;;;7.65;;
66626;SDS011;53498;50.422;14.912;2023-07-09T01:38:33;9.98;;;8.77;;
66626;SDS011;53498;50.422;14.912;2023-07-09T01:41:00;8.80;;;7.78;;
66626;SDS011;53498;50.422;14.912;2023-07-09T01:43:26;9.00;;;7.72;;
66626;SDS011;53498;50.422;14.912;2023-07-09T01:45:52;8.55;;;7.20;;
66626;SDS011;53498;50.422;14.912;2023-07-09T01:48:18;8.30;;;7.47;;
66626;SDS011;53498;50.422;14.912;2023-07-09T01:50:45;7.95;;;7.15;;
66626;SDS011;53498;50.422;14.912;2023-07-09T01:53:14;8.25;;;7.20;;
66626;SDS011;53498;50.422;14.912;2023-07-09T01:55:41;8.65;;;7.30;;
66626;SDS011;53498;50.422;14.912;2023-07-09T01:58:08;8.38;;;7.55;;
66626;SDS011;53498;50.422;14.912;2023-07-09T02:00:33;9.38;;;8.32;;
66626;SDS011;53498;50.422;14.912;2023-07-09T02:03:00;8.82;;;8.00;;
66626;SDS011;53498;50.422;14.912;2023-07-09T02:05:28;8.38;;;7.47;;
66626;SDS011;53498;50.422;14.912;2023-07-09T02:07:55;8.93;;;7.82;;
66626;SDS011;53498;50.422;14.912;2023-07-09T02:10:21;8.27;;;7.53;;
66626;SDS011;53498;50.422;14.912;2023-07-09T02:12:47;10.70;;;8.32;;
66626;SDS011;53498;50.422;14.912;2023-07-09T02:15:13;9.18;;;8.27;;
66626;SDS011;53498;50.422;14.912;2023-07-09T02:17:40;8.27;;;7.47;;
66626;SDS011;53498;50.422;14.912;2023-07-09T02:20:06;8.60;;;7.55;;
66626;SDS011;53498;50.422;14.912;2023-07-09T02:22:33;7.85;;;7.05;;
66626;SDS011;53498;50.422;14.912;2023-07-09T02:24:59;9.38;;;7.65;;
66626;SDS011;53498;50.422;14.912;2023-07-09T02:27:25;8.38;;;7.57;;
66626;SDS011;53498;50.422;14.912;2023-07-09T02:29:51;9.10;;;7.45;;
66626;SDS011;53498;50.422;14.912;2023-07-09T02:32:18;9.93;;;7.47;;
66626;SDS011;53498;50.422;14.912;2023-07-09T02:34:45;9.43;;;7.50;;
66626;SDS011;53498;50.422;14.912;2023-07-09T02:37:16;8.50;;;7.60;;
66626;SDS011;53498;50.422;14.912;2023-07-09T02:39:43;8.60;;;7.75;;
66626;SDS011;53498;50.422;14.912;2023-07-09T02:42:09;8.68;;;7.38;;
66626;SDS011;53498;50.422;14.912;2023-07-09T02:44:36;8.18;;;7.35;;
66626;SDS011;53498;50.422;14.912;2023-07-09T02:47:02;8.43;;;7.63;;
66626;SDS011;53498;50.422;14.912;2023-07-09T02:49:28;9.32;;;7.63;;
66626;SDS011;53498;50.422;14.912;2023-07-09T02:51:54;9.18;;;7.68;;
66626;SDS011;53498;50.422;14.912;2023-07-09T02:54:20;8.23;;;7.38;;
66626;SDS011;53498;50.422;14.912;2023-07-09T02:56:45;9.77;;;6.95;;
66626;SDS011;53498;50.422;14.912;2023-07-09T02:59:11;9.60;;;6.85;;
66626;SDS011;53498;50.422;14.912;2023-07-09T03:01:39;8.85;;;7.95;;
66626;SDS011;53498;50.422;14.912;2023-07-09T03:04:04;9.50;;;8.45;;
66626;SDS011;53498;50.422;14.912;2023-07-09T03:06:30;10.18;;;6.88;;
66626;SDS011;53498;50.422;14.912;2023-07-09T03:09:00;9.68;;;8.05;;
66626;SDS011;53498;50.422;14.912;2023-07-09T03:11:27;9.07;;;7.75;;
66626;SDS011;53498;50.422;14.912;2023-07-09T03:13:57;9.52;;;7.97;;
66626;SDS011;53498;50.422;14.912;2023-07-09T03:16:25;9.30;;;7.45;;
66626;SDS011;53498;50.422;14.912;2023-07-09T03:18:55;8.75;;;7.70;;
66626;SDS011;53498;50.422;14.912;2023-07-09T03:21:22;8.65;;;7.75;;
66626;SDS011;53498;50.422;14.912;2023-07-09T03:23:48;8.13;;;7.07;;
66626;SDS011;53498;50.422;14.912;2023-07-09T03:26:14;8.77;;;7.93;;
66626;SDS011;53498;50.422;14.912;2023-07-09T03:28:40;8.35;;;7.05;;
66626;SDS011;53498;50.422;14.912;2023-07-09T03:31:06;9.00;;;7.85;;
66626;SDS011;53498;50.422;14.912;2023-07-09T03:33:31;9.18;;;8.15;;
66626;SDS011;53498;50.422;14.912;2023-07-09T03:35:57;9.77;;;8.30;;
66626;SDS011;53498;50.422;14.912;2023-07-09T03:38:22;10.40;;;9.13;;
66626;SDS011;53498;50.422;14.912;2023-07-09T03:40:52;9.60;;;8.63;;
66626;SDS011;53498;50.422;14.912;2023-07-09T03:43:18;11.82;;;8.75;;
66626;SDS011;53498;50.422;14.912;2023-07-09T03:45:45;9.80;;;8.07;;
66626;SDS011;53498;50.422;14.912;2023-07-09T03:48:11;9.60;;;8.30;;
66626;SDS011;53498;50.422;14.912;2023-07-09T03:50:37;10.05;;;8.82;;
66626;SDS011;53498;50.422;14.912;2023-07-09T03:53:03;9.30;;;7.95;;
66626;SDS011;53498;50.422;14.912;2023-07-09T03:55:28;9.27;;;8.38;;
66626;SDS011;53498;50.422;14.912;2023-07-09T03:57:54;9.73;;;8.63;;
66626;SDS011;53498;50.422;14.912;2023-07-09T04:00:21;8.18;;;7.38;;
66626;SDS011;53498;50.422;14.912;2023-07-09T04:02:46;8.68;;;6.95;;
66626;SDS011;53498;50.422;14.912;2023-07-09T04:05:12;8.73;;;7.45;;
66626;SDS011;53498;50.422;14.912;2023-07-09T04:07:38;9.85;;;7.72;;
66626;SDS011;53498;50.422;14.912;2023-07-09T04:10:04;9.73;;;8.73;;
66626;SDS011;53498;50.422;14.912;2023-07-09T04:12:30;10.07;;;8.35;;
66626;SDS011;53498;50.422;14.912;2023-07-09T04:14:56;9.38;;;8.32;;
66626;SDS011;53498;50.422;14.912;2023-07-09T04:17:22;10.48;;;8.23;;
66626;SDS011;53498;50.422;14.912;2023-07-09T04:19:49;8.93;;;7.40;;
66626;SDS011;53498;50.422;14.912;2023-07-09T04:22:15;10.40;;;8.10;;
66626;SDS011;53498;50.422;14.912;2023-07-09T04:24:41;8.52;;;7.65;;
66626;SDS011;53498;50.422;14.912;2023-07-09T04:27:06;8.30;;;7.40;;
66626;SDS011;53498;50.422;14.912;2023-07-09T04:29:33;11.05;;;8.27;;
66626;SDS011;53498;50.422;14.912;2023-07-09T04:32:00;9.63;;;8.23;;
66626;SDS011;53498;50.422;14.912;2023-07-09T04:34:30;9.38;;;7.78;;
66626;SDS011;53498;50.422;14.912;2023-07-09T04:36:56;8.50;;;7.57;;
66626;SDS011;53498;50.422;14.912;2023-07-09T04:39:21;9.35;;;7.50;;
66626;SDS011;53498;50.422;14.912;2023-07-09T04:41:47;8.85;;;7.95;;
66626;SDS011;53498;50.422;14.912;2023-07-09T04:44:13;8.63;;;7.35;;
66626;SDS011;53498;50.422;14.912;2023-07-09T04:46:38;8.93;;;8.02;;
66626;SDS011;53498;50.422;14.912;2023-07-09T04:49:04;8.70;;;7.50;;
66626;SDS011;53498;50.422;14.912;2023-07-09T04:51:30;9.45;;;7.63;;
66626;SDS011;53498;50.422;14.912;2023-07-09T04:53:56;8.07;;;7.30;;
66626;SDS011;53498;50.422;14.912;2023-07-09T04:56:21;8.55;;;7.72;;
66626;SDS011;53498;50.422;14.912;2023-07-09T04:58:48;8.52;;;7.53;;
66626;SDS011;53498;50.422;14.912;2023-07-09T05:01:13;8.82;;;7.30;;
66626;SDS011;53498;50.422;14.912;2023-07-09T05:03:39;8.10;;;7.30;;
66626;SDS011;53498;50.422;14.912;2023-07-09T05:06:04;7.80;;;7.07;;
66626;SDS011;53498;50.422;14.912;2023-07-09T05:08:30;8.13;;;7.32;;
66626;SDS011;53498;50.422;14.912;2023-07-09T05:10:56;8.80;;;7.93;;
66626;SDS011;53498;50.422;14.912;2023-07-09T05:13:23;9.00;;;7.50;;
66626;SDS011;53498;50.422;14.912;2023-07-09T05:15:50;7.80;;;7.00;;
66626;SDS011;53498;50.422;14.912;2023-07-09T05:18:16;8.15;;;7.35;;
66626;SDS011;53498;50.422;14.912;2023-07-09T05:20:43;7.68;;;6.97;;
66626;SDS011;53498;50.422;14.912;2023-07-09T05:23:09;8.35;;;7.55;;
66626;SDS011;53498;50.422;14.912;2023-07-09T05:25:35;8.73;;;7.32;;
66626;SDS011;53498;50.422;14.912;2023-07-09T05:28:01;8.52;;;7.53;;
66626;SDS011;53498;50.422;14.912;2023-07-09T05:30:27;9.65;;;7.47;;
66626;SDS011;53498;50.422;14.912;2023-07-09T05:32:53;8.10;;;7.38;;
66626;SDS011;53498;50.422;14.912;2023-07-09T05:35:21;9.07;;;7.78;;
66626;SDS011;53498;50.422;14.912;2023-07-09T05:37:47;8.68;;;7.78;;
66626;SDS011;53498;50.422;14.912;2023-07-09T05:40:12;8.75;;;6.57;;
66626;SDS011;53498;50.422;14.912;2023-07-09T05:42:38;9.40;;;8.18;;
66626;SDS011;53498;50.422;14.912;2023-07-09T05:45:04;8.32;;;7.45;;
66626;SDS011;53498;50.422;14.912;2023-07-09T05:47:30;10.13;;;8.13;;
66626;SDS011;53498;50.422;14.912;2023-07-09T05:49:55;9.50;;;8.15;;
66626;SDS011;53498;50.422;14.912;2023-07-09T05:52:22;8.90;;;7.95;;
66626;SDS011;53498;50.422;14.912;2023-07-09T05:54:49;9.95;;;8.25;;
66626;SDS011;53498;50.422;14.912;2023-07-09T05:57:16;9.32;;;8.43;;
66626;SDS011;53498;50.422;14.912;2023-07-09T05:59:45;8.18;;;7.38;;
66626;SDS011;53498;50.422;14.912;2023-07-09T06:02:11;12.88;;;8.38;;
66626;SDS011;53498;50.422;14.912;2023-07-09T06:04:37;9.90;;;8.90;;
66626;SDS011;53498;50.422;14.912;2023-07-09T06:07:03;9.18;;;6.90;;
66626;SDS011;53498;50.422;14.912;2023-07-09T06:09:29;10.50;;;7.57;;
66626;SDS011;53498;50.422;14.912;2023-07-09T06:11:55;10.77;;;7.75;;
66626;SDS011;53498;50.422;14.912;2023-07-09T06:14:21;8.55;;;7.32;;
66626;SDS011;53498;50.422;14.912;2023-07-09T06:16:46;7.65;;;6.95;;
66626;SDS011;53498;50.422;14.912;2023-07-09T06:19:12;7.80;;;6.68;;
66626;SDS011;53498;50.422;14.912;2023-07-09T06:21:38;8.02;;;7.18;;
66626;SDS011;53498;50.422;14.912;2023-07-09T06:24:05;9.20;;;6.82;;
66626;SDS011;53498;50.422;14.912;2023-07-09T06:26:32;9.32;;;6.90;;
66626;SDS011;53498;50.422;14.912;2023-07-09T06:28:58;9.50;;;7.25;;
66626;SDS011;53498;50.422;14.912;2023-07-09T06:31:24;8.90;;;7.40;;
66626;SDS011;53498;50.422;14.912;2023-07-09T06:33:49;7.47;;;6.70;;
66626;SDS011;53498;50.422;14.912;2023-07-09T06:36:16;7.95;;;7.15;;
66626;SDS011;53498;50.422;14.912;2023-07-09T06:38:43;8.32;;;7.53;;
66626;SDS011;53498;50.422;14.912;2023-07-09T06:41:09;8.50;;;7.65;;
66626;SDS011;53498;50.422;14.912;2023-07-09T06:43:35;7.50;;;6.60;;
66626;SDS011;53498;50.422;14.912;2023-07-09T06:46:04;7.40;;;6.40;;
66626;SDS011;53498;50.422;14.912;2023-07-09T06:48:30;7.30;;;6.10;;
66626;SDS011;53498;50.422;14.912;2023-07-09T06:50:56;7.75;;;6.07;;
66626;SDS011;53498;50.422;14.912;2023-07-09T06:53:23;7.15;;;6.28;;
66626;SDS011;53498;50.422;14.912;2023-07-09T06:55:49;6.93;;;6.22;;
66626;SDS011;53498;50.422;14.912;2023-07-09T06:58:15;7.85;;;6.80;;
66626;SDS011;53498;50.422;14.912;2023-07-09T07:00:42;7.72;;;6.80;;
66626;SDS011;53498;50.422;14.912;2023-07-09T07:03:08;7.25;;;6.53;;
66626;SDS011;53498;50.422;14.912;2023-07-09T07:05:34;9.02;;;6.32;;
66626;SDS011;53498;50.422;14.912;2023-07-09T07:08:01;6.90;;;6.30;;
66626;SDS011;53498;50.422;14.912;2023-07-09T07:10:28;7.07;;;6.38;;
66626;SDS011;53498;50.422;14.912;2023-07-09T07:12:53;8.90;;;7.72;;
66626;SDS011;53498;50.422;14.912;2023-07-09T07:15:19;6.88;;;6.28;;
66626;SDS011;53498;50.422;14.912;2023-07-09T07:17:45;8.40;;;7.15;;
66626;SDS011;53498;50.422;14.912;2023-07-09T07:20:15;6.95;;;6.28;;
66626;SDS011;53498;50.422;14.912;2023-07-09T07:22:41;9.73;;;6.35;;
66626;SDS011;53498;50.422;14.912;2023-07-09T07:25:07;7.72;;;6.50;;
66626;SDS011;53498;50.422;14.912;2023-07-09T07:27:34;7.15;;;6.45;;
66626;SDS011;53498;50.422;14.912;2023-07-09T07:30:01;11.48;;;6.43;;
66626;SDS011;53498;50.422;14.912;2023-07-09T07:32:27;6.45;;;5.80;;
66626;SDS011;53498;50.422;14.912;2023-07-09T07:34:54;6.93;;;6.22;;
66626;SDS011;53498;50.422;14.912;2023-07-09T07:37:20;6.70;;;6.00;;
66626;SDS011;53498;50.422;14.912;2023-07-09T07:39:48;8.25;;;5.97;;
66626;SDS011;53498;50.422;14.912;2023-07-09T07:42:14;7.72;;;6.88;;
66626;SDS011;53498;50.422;14.912;2023-07-09T07:44:44;7.05;;;6.35;;
66626;SDS011;53498;50.422;14.912;2023-07-09T07:47:09;7.85;;;6.03;;
66626;SDS011;53498;50.422;14.912;2023-07-09T07:49:37;6.40;;;5.60;;
66626;SDS011;53498;50.422;14.912;2023-07-09T07:52:04;7.20;;;5.97;;
66626;SDS011;53498;50.422;14.912;2023-07-09T07:54:32;6.43;;;5.78;;
66626;SDS011;53498;50.422;14.912;2023-07-09T07:56:57;6.18;;;5.57;;
66626;SDS011;53498;50.422;14.912;2023-07-09T07:59:24;6.65;;;5.85;;
66626;SDS011;53498;50.422;14.912;2023-07-09T08:01:49;6.18;;;5.65;;
66626;SDS011;53498;50.422;14.912;2023-07-09T08:04:15;5.80;;;5.30;;
66626;SDS011;53498;50.422;14.912;2023-07-09T08:06:41;6.68;;;6.07;;
66626;SDS011;53498;50.422;14.912;2023-07-09T08:09:06;6.70;;;5.82;;
66626;SDS011;53498;50.422;14.912;2023-07-09T08:11:32;6.97;;;6.28;;
66626;SDS011;53498;50.422;14.912;2023-07-09T08:13:58;7.03;;;6.30;;
66626;SDS011;53498;50.422;14.912;2023-07-09T08:16:23;7.68;;;6.88;;
66626;SDS011;53498;50.422;14.912;2023-07-09T08:18:49;6.97;;;6.22;;
66626;SDS011;53498;50.422;14.912;2023-07-09T08:21:17;8.05;;;6.50;;
66626;SDS011;53498;50.422;14.912;2023-07-09T08:23:44;8.25;;;6.35;;
66626;SDS011;53498;50.422;14.912;2023-07-09T08:26:10;7.80;;;7.00;;
66626;SDS011;53498;50.422;14.912;2023-07-09T08:28:37;6.90;;;6.10;;
66626;SDS011;53498;50.422;14.912;2023-07-09T08:31:03;7.00;;;6.30;;
66626;SDS011;53498;50.422;14.912;2023-07-09T08:33:29;7.18;;;6.47;;
66626;SDS011;53498;50.422;14.912;2023-07-09T08:35:56;6.03;;;5.53;;
66626;SDS011;53498;50.422;14.912;2023-07-09T08:38:23;6.93;;;5.70;;
66626;SDS011;53498;50.422;14.912;2023-07-09T08:40:59;6.05;;;5.55;;
66626;SDS011;53498;50.422;14.912;2023-07-09T08:43:41;7.35;;;6.10;;
66626;SDS011;53498;50.422;14.912;2023-07-09T08:46:18;6.18;;;5.57;;
66626;SDS011;53498;50.422;14.912;2023-07-09T08:49:04;6.68;;;5.95;;
66626;SDS011;53498;50.422;14.912;2023-07-09T08:51:40;6.18;;;5.57;;
66626;SDS011;53498;50.422;14.912;2023-07-09T08:54:17;5.80;;;5.25;;
66626;SDS011;53498;50.422;14.912;2023-07-09T08:56:50;6.47;;;5.70;;
66626;SDS011;53498;50.422;14.912;2023-07-09T08:59:16;8.18;;;5.35;;
66626;SDS011;53498;50.422;14.912;2023-07-09T09:01:49;9.35;;;7.00;;
66626;SDS011;53498;50.422;14.912;2023-07-09T09:04:30;14.68;;;9.73;;
66626;SDS011;53498;50.422;14.912;2023-07-09T09:07:04;9.02;;;7.03;;
66626;SDS011;53498;50.422;14.912;2023-07-09T09:09:40;23.95;;;15.13;;
66626;SDS011;53498;50.422;14.912;2023-07-09T09:12:16;10.77;;;8.17;;
66626;SDS011;53498;50.422;14.912;2023-07-09T09:14:48;7.00;;;6.30;;
66626;SDS011;53498;50.422;14.912;2023-07-09T09:17:23;9.02;;;6.65;;
66626;SDS011;53498;50.422;14.912;2023-07-09T09:19:53;6.63;;;5.20;;
66626;SDS011;53498;50.422;14.912;2023-07-09T09:22:22;7.13;;;5.95;;
66626;SDS011;53498;50.422;14.912;2023-07-09T09:24:58;6.13;;;5.53;;
66626;SDS011;53498;50.422;14.912;2023-07-09T09:27:30;5.68;;;4.90;;
66626;SDS011;53498;50.422;14.912;2023-07-09T09:29:56;7.15;;;5.35;;
66626;SDS011;53498;50.422;14.912;2023-07-09T09:32:26;5.75;;;5.20;;
66626;SDS011;53498;50.422;14.912;2023-07-09T09:34:53;5.35;;;4.85;;
66626;SDS011;53498;50.422;14.912;2023-07-09T09:37:24;7.00;;;5.53;;
66626;SDS011;53498;50.422;14.912;2023-07-09T09:39:53;5.15;;;4.65;;
66626;SDS011;53498;50.422;14.912;2023-07-09T09:42:19;4.90;;;4.40;;
66626;SDS011;53498;50.422;14.912;2023-07-09T09:44:45;5.60;;;4.88;;
66626;SDS011;53498;50.422;14.912;2023-07-09T09:47:11;5.88;;;4.30;;
66626;SDS011;53498;50.422;14.912;2023-07-09T09:49:38;5.32;;;4.50;;
66626;SDS011;53498;50.422;14.912;2023-07-09T09:52:12;4.78;;;4.32;;
66626;SDS011;53498;50.422;14.912;2023-07-09T09:54:40;5.75;;;4.43;;
66626;SDS011;53498;50.422;14.912;2023-07-09T09:57:14;5.05;;;4.53;;
66626;SDS011;53498;50.422;14.912;2023-07-09T09:59:42;4.03;;;3.60;;
66626;SDS011;53498;50.422;14.912;2023-07-09T10:02:17;4.18;;;3.58;;
66626;SDS011;53498;50.422;14.912;2023-07-09T10:04:45;6.45;;;4.00;;
66626;SDS011;53498;50.422;14.912;2023-07-09T10:07:22;5.07;;;3.90;;
66626;SDS011;53498;50.422;14.912;2023-07-09T10:09:55;4.20;;;3.70;;
66626;SDS011;53498;50.422;14.912;2023-07-09T10:12:38;4.75;;;4.25;;
66626;SDS011;53498;50.422;14.912;2023-07-09T10:18:20;4.55;;;4.15;;
66626;SDS011;53498;50.422;14.912;2023-07-09T10:20:58;5.38;;;4.03;;
66626;SDS011;53498;50.422;14.912;2023-07-09T10:23:38;4.07;;;3.67;;
66626;SDS011;53498;50.422;14.912;2023-07-09T10:26:15;4.13;;;3.72;;
66626;SDS011;53498;50.422;14.912;2023-07-09T10:31:45;4.47;;;4.07;;
66626;SDS011;53498;50.422;14.912;2023-07-09T10:34:25;4.97;;;3.85;;
66626;SDS011;53498;50.422;14.912;2023-07-09T10:39:54;5.35;;;4.68;;
66626;SDS011;53498;50.422;14.912;2023-07-09T10:42:30;7.28;;;4.43;;
66626;SDS011;53498;50.422;14.912;2023-07-09T10:45:12;5.00;;;4.50;;
66626;SDS011;53498;50.422;14.912;2023-07-09T10:47:44;5.15;;;4.53;;
66626;SDS011;53498;50.422;14.912;2023-07-09T10:50:47;4.78;;;4.38;;
66626;SDS011;53498;50.422;14.912;2023-07-09T10:53:14;4.85;;;4.32;;
66626;SDS011;53498;50.422;14.912;2023-07-09T11:01:37;4.32;;;3.92;;
66626;SDS011;53498;50.422;14.912;2023-07-09T11:04:08;5.10;;;4.10;;
66626;SDS011;53498;50.422;14.912;2023-07-09T11:06:38;5.80;;;4.40;;
66626;SDS011;53498;50.422;14.912;2023-07-09T11:09:16;5.20;;;4.13;;
66626;SDS011;53498;50.422;14.912;2023-07-09T11:11:50;5.40;;;4.30;;
66626;SDS011;53498;50.422;14.912;2023-07-09T11:16:54;5.78;;;4.35;;
66626;SDS011;53498;50.422;14.912;2023-07-09T11:19:22;5.80;;;4.28;;
66626;SDS011;53498;50.422;14.912;2023-07-09T11:24:50;5.10;;;4.63;;
66626;SDS011;53498;50.422;14.912;2023-07-09T11:29:46;4.80;;;4.32;;
66626;SDS011;53498;50.422;14.912;2023-07-09T11:32:21;6.15;;;4.30;;
66626;SDS011;53498;50.422;14.912;2023-07-09T11:34:48;4.55;;;4.15;;
66626;SDS011;53498;50.422;14.912;2023-07-09T11:37:14;5.07;;;3.97;;
66626;SDS011;53498;50.422;14.912;2023-07-09T11:42:29;4.70;;;4.20;;
66626;SDS011;53498;50.422;14.912;2023-07-09T11:44:58;5.32;;;4.60;;
66626;SDS011;53498;50.422;14.912;2023-07-09T11:50:48;5.65;;;4.28;;
66626;SDS011;53498;50.422;14.912;2023-07-09T11:55:59;5.75;;;4.50;;
66626;SDS011;53498;50.422;14.912;2023-07-09T11:58:25;5.15;;;4.38;;
66626;SDS011;53498;50.422;14.912;2023-07-09T12:00:51;5.18;;;4.68;;
66626;SDS011;53498;50.422;14.912;2023-07-09T12:06:07;4.88;;;4.30;;
66626;SDS011;53498;50.422;14.912;2023-07-09T12:08:43;4.60;;;4.20;;
66626;SDS011;53498;50.422;14.912;2023-07-09T12:13:51;4.55;;;4.15;;
66626;SDS011;53498;50.422;14.912;2023-07-09T12:16:25;4.75;;;4.35;;
66626;SDS011;53498;50.422;14.912;2023-07-09T12:18:56;4.72;;;4.28;;
66626;SDS011;53498;50.422;14.912;2023-07-09T12:21:23;6.30;;;4.65;;
66626;SDS011;53498;50.422;14.912;2023-07-09T12:23:49;5.38;;;4.68;;
66626;SDS011;53498;50.422;14.912;2023-07-09T12:26:19;7.07;;;4.10;;
66626;SDS011;53498;50.422;14.912;2023-07-09T12:28:51;5.15;;;4.65;;
66626;SDS011;53498;50.422;14.912;2023-07-09T12:31:26;5.47;;;4.30;;
66626;SDS011;53498;50.422;14.912;2023-07-09T12:33:56;6.63;;;4.57;;
66626;SDS011;53498;50.422;14.912;2023-07-09T12:36:24;5.63;;;4.90;;
66626;SDS011;53498;50.422;14.912;2023-07-09T12:38:52;5.90;;;4.35;;
66626;SDS011;53498;50.422;14.912;2023-07-09T12:43:47;4.88;;;4.38;;
66626;SDS011;53498;50.422;14.912;2023-07-09T12:46:14;4.85;;;4.35;;
66626;SDS011;53498;50.422;14.912;2023-07-09T12:48:41;4.55;;;4.05;;
66626;SDS011;53498;50.422;14.912;2023-07-09T12:51:08;5.38;;;4.68;;
66626;SDS011;53498;50.422;14.912;2023-07-09T12:53:35;5.18;;;4.60;;
66626;SDS011;53498;50.422;14.912;2023-07-09T12:56:02;5.75;;;4.38;;
66626;SDS011;53498;50.422;14.912;2023-07-09T12:58:43;5.05;;;4.30;;
66626;SDS011;53498;50.422;14.912;2023-07-09T13:01:16;5.28;;;4.60;;
66626;SDS011;53498;50.422;14.912;2023-07-09T13:03:51;6.13;;;4.65;;
66626;SDS011;53498;50.422;14.912;2023-07-09T13:06:26;4.85;;;4.30;;
66626;SDS011;53498;50.422;14.912;2023-07-09T13:09:00;4.80;;;4.30;;
66626;SDS011;53498;50.422;14.912;2023-07-09T13:11:35;5.50;;;4.25;;
66626;SDS011;53498;50.422;14.912;2023-07-09T13:14:03;4.50;;;3.97;;
66626;SDS011;53498;50.422;14.912;2023-07-09T13:16:30;4.65;;;3.90;;
66626;SDS011;53498;50.422;14.912;2023-07-09T13:19:02;5.78;;;4.50;;
66626;SDS011;53498;50.422;14.912;2023-07-09T13:21:28;5.28;;;4.05;;
66626;SDS011;53498;50.422;14.912;2023-07-09T13:23:54;4.97;;;4.47;;
66626;SDS011;53498;50.422;14.912;2023-07-09T13:26:20;4.22;;;3.78;;
66626;SDS011;53498;50.422;14.912;2023-07-09T13:28:46;4.97;;;3.47;;
66626;SDS011;53498;50.422;14.912;2023-07-09T13:31:13;4.22;;;3.65;;
66626;SDS011;53498;50.422;14.912;2023-07-09T13:33:41;5.40;;;3.70;;
66626;SDS011;53498;50.422;14.912;2023-07-09T13:36:07;4.90;;;4.00;;
66626;SDS011;53498;50.422;14.912;2023-07-09T13:38:34;5.60;;;3.85;;
66626;SDS011;53498;50.422;14.912;2023-07-09T13:41:00;4.82;;;3.83;;
66626;SDS011;53498;50.422;14.912;2023-07-09T13:43:35;6.05;;;3.70;;
66626;SDS011;53498;50.422;14.912;2023-07-09T13:46:02;4.85;;;3.95;;
66626;SDS011;53498;50.422;14.912;2023-07-09T13:48:29;4.18;;;3.45;;
66626;SDS011;53498;50.422;14.912;2023-07-09T13:50:56;5.30;;;3.88;;
66626;SDS011;53498;50.422;14.912;2023-07-09T13:53:27;5.00;;;3.53;;
66626;SDS011;53498;50.422;14.912;2023-07-09T13:55:55;4.55;;;3.97;;
66626;SDS011;53498;50.422;14.912;2023-07-09T13:58:22;5.32;;;3.85;;
66626;SDS011;53498;50.422;14.912;2023-07-09T14:00:50;6.90;;;4.10;;
66626;SDS011;53498;50.422;14.912;2023-07-09T14:03:23;4.50;;;3.97;;
66626;SDS011;53498;50.422;14.912;2023-07-09T14:05:51;4.97;;;4.10;;
66626;SDS011;53498;50.422;14.912;2023-07-09T14:08:17;5.35;;;4.20;;
66626;SDS011;53498;50.422;14.912;2023-07-09T14:10:47;4.95;;;4.13;;
66626;SDS011;53498;50.422;14.912;2023-07-09T14:13:16;4.47;;;4.03;;
66626;SDS011;53498;50.422;14.912;2023-07-09T14:15:46;5.65;;;5.00;;
66626;SDS011;53498;50.422;14.912;2023-07-09T14:18:13;5.00;;;3.60;;
66626;SDS011;53498;50.422;14.912;2023-07-09T14:20:40;6.05;;;3.72;;
66626;SDS011;53498;50.422;14.912;2023-07-09T14:23:13;5.68;;;3.80;;
66626;SDS011;53498;50.422;14.912;2023-07-09T14:25:40;4.55;;;3.88;;
66626;SDS011;53498;50.422;14.912;2023-07-09T14:28:08;8.85;;;4.38;;
66626;SDS011;53498;50.422;14.912;2023-07-09T14:30:36;5.78;;;3.70;;
66626;SDS011;53498;50.422;14.912;2023-07-09T14:33:01;7.65;;;4.60;;
66626;SDS011;53498;50.422;14.912;2023-07-09T14:35:27;5.68;;;4.30;;
66626;SDS011;53498;50.422;14.912;2023-07-09T14:37:54;5.55;;;3.80;;
66626;SDS011;53498;50.422;14.912;2023-07-09T14:40:21;4.22;;;3.83;;
66626;SDS011;53498;50.422;14.912;2023-07-09T14:42:48;5.72;;;4.22;;
66626;SDS011;53498;50.422;14.912;2023-07-09T14:47:44;4.50;;;4.00;;
66626;SDS011;53498;50.422;14.912;2023-07-09T14:50:10;6.38;;;4.25;;
66626;SDS011;53498;50.422;14.912;2023-07-09T14:52:36;4.88;;;4.20;;
66626;SDS011;53498;50.422;14.912;2023-07-09T14:55:03;6.55;;;3.90;;
66626;SDS011;53498;50.422;14.912;2023-07-09T14:57:28;4.63;;;4.00;;
66626;SDS011;53498;50.422;14.912;2023-07-09T14:59:55;4.97;;;4.15;;
66626;SDS011;53498;50.422;14.912;2023-07-09T15:05:03;5.20;;;4.47;;
66626;SDS011;53498;50.422;14.912;2023-07-09T15:07:32;4.88;;;4.03;;
66626;SDS011;53498;50.422;14.912;2023-07-09T15:09:58;5.72;;;4.00;;
66626;SDS011;53498;50.422;14.912;2023-07-09T15:12:26;5.30;;;3.92;;
66626;SDS011;53498;50.422;14.912;2023-07-09T15:15:40;6.63;;;4.43;;
66626;SDS011;53498;50.422;14.912;2023-07-09T15:17:41;5.30;;;3.97;;
66626;SDS011;53498;50.422;14.912;2023-07-09T15:20:13;5.13;;;3.83;;
66626;SDS011;53498;50.422;14.912;2023-07-09T15:22:43;5.50;;;3.80;;
66626;SDS011;53498;50.422;14.912;2023-07-09T15:25:14;4.30;;;3.83;;
66626;SDS011;53498;50.422;14.912;2023-07-09T15:27:42;5.85;;;4.53;;